sensor_id;sensor_type;location;lat;lon;timestamp;P1;durP1;ratioP1;P2;durP2;ratioP2
29686;SDS011;16599;47.078;15.536;2022-12-24T00:01:02;35.03;;;19.50;;
29686;SDS011;16599;47.078;15.536;2022-12-24T00:03:30;39.63;;;19.00;;
29686;SDS011;16599;47.078;15.536;2022-12-24T00:05:57;32.40;;;17.90;;
29686;SDS011;16599;47.078;15.536;2022-12-24T00:08:24;39.03;;;18.25;;
29686;SDS011;16599;47.078;15.536;2022-12-24T00:10:51;29.85;;;16.80;;
29686;SDS011;16599;47.078;15.536;2022-12-24T00:13:19;28.02;;;15.70;;
29686;SDS011;16599;47.078;15.536;2022-12-24T00:15:46;30.30;;;16.70;;
29686;SDS011;16599;47.078;15.536;2022-12-24T00:18:14;33.53;;;18.02;;
29686;SDS011;16599;47.078;15.536;2022-12-24T00:20:41;32.95;;;17.35;;
29686;SDS011;16599;47.078;15.536;2022-12-24T00:23:12;34.63;;;16.92;;
29686;SDS011;16599;47.078;15.536;2022-12-24T00:25:40;31.55;;;15.30;;
29686;SDS011;16599;47.078;15.536;2022-12-24T00:28:07;26.85;;;15.35;;
29686;SDS011;16599;47.078;15.536;2022-12-24T00:30:36;26.30;;;14.98;;
29686;SDS011;16599;47.078;15.536;2022-12-24T00:33:04;28.27;;;15.70;;
29686;SDS011;16599;47.078;15.536;2022-12-24T00:35:38;25.00;;;14.35;;
29686;SDS011;16599;47.078;15.536;2022-12-24T00:38:05;32.92;;;16.13;;
29686;SDS011;16599;47.078;15.536;2022-12-24T00:40:33;29.25;;;15.32;;
29686;SDS011;16599;47.078;15.536;2022-12-24T00:43:01;22.55;;;13.27;;
29686;SDS011;16599;47.078;15.536;2022-12-24T00:45:28;26.30;;;14.00;;
29686;SDS011;16599;47.078;15.536;2022-12-24T00:47:55;28.38;;;14.65;;
29686;SDS011;16599;47.078;15.536;2022-12-24T00:50:22;30.13;;;13.43;;
29686;SDS011;16599;47.078;15.536;2022-12-24T00:52:49;27.20;;;13.88;;
29686;SDS011;16599;47.078;15.536;2022-12-24T00:55:16;31.00;;;14.88;;
29686;SDS011;16599;47.078;15.536;2022-12-24T00:57:43;24.15;;;13.57;;
29686;SDS011;16599;47.078;15.536;2022-12-24T01:00:10;26.02;;;14.52;;
29686;SDS011;16599;47.078;15.536;2022-12-24T01:02:37;26.52;;;13.52;;
29686;SDS011;16599;47.078;15.536;2022-12-24T01:05:04;23.55;;;12.82;;
29686;SDS011;16599;47.078;15.536;2022-12-24T01:07:38;27.15;;;14.55;;
29686;SDS011;16599;47.078;15.536;2022-12-24T01:10:07;28.23;;;14.23;;
29686;SDS011;16599;47.078;15.536;2022-12-24T01:12:35;26.98;;;13.75;;
29686;SDS011;16599;47.078;15.536;2022-12-24T01:15:03;25.55;;;13.13;;
29686;SDS011;16599;47.078;15.536;2022-12-24T01:17:31;28.50;;;13.43;;
29686;SDS011;16599;47.078;15.536;2022-12-24T01:19:58;23.63;;;13.15;;
29686;SDS011;16599;47.078;15.536;2022-12-24T01:22:25;23.38;;;12.43;;
29686;SDS011;16599;47.078;15.536;2022-12-24T01:24:52;24.65;;;13.02;;
29686;SDS011;16599;47.078;15.536;2022-12-24T01:27:19;21.88;;;12.30;;
29686;SDS011;16599;47.078;15.536;2022-12-24T01:29:46;23.15;;;11.48;;
29686;SDS011;16599;47.078;15.536;2022-12-24T01:32:13;22.23;;;12.25;;
29686;SDS011;16599;47.078;15.536;2022-12-24T01:34:40;25.30;;;12.02;;
29686;SDS011;16599;47.078;15.536;2022-12-24T01:37:07;26.38;;;12.93;;
29686;SDS011;16599;47.078;15.536;2022-12-24T01:39:34;25.60;;;14.38;;
29686;SDS011;16599;47.078;15.536;2022-12-24T01:42:01;22.60;;;11.13;;
29686;SDS011;16599;47.078;15.536;2022-12-24T01:44:54;25.50;;;12.02;;
29686;SDS011;16599;47.078;15.536;2022-12-24T01:47:22;23.98;;;12.18;;
29686;SDS011;16599;47.078;15.536;2022-12-24T01:49:55;21.75;;;11.05;;
29686;SDS011;16599;47.078;15.536;2022-12-24T01:52:26;21.85;;;11.00;;
29686;SDS011;16599;47.078;15.536;2022-12-24T01:57:33;14.55;;;9.15;;
29686;SDS011;16599;47.078;15.536;2022-12-24T02:00:06;16.30;;;8.80;;
29686;SDS011;16599;47.078;15.536;2022-12-24T02:02:38;17.02;;;9.07;;
29686;SDS011;16599;47.078;15.536;2022-12-24T02:05:07;16.85;;;9.20;;
29686;SDS011;16599;47.078;15.536;2022-12-24T02:07:41;23.25;;;9.95;;
29686;SDS011;16599;47.078;15.536;2022-12-24T02:10:09;15.80;;;7.00;;
29686;SDS011;16599;47.078;15.536;2022-12-24T02:12:37;15.18;;;6.72;;
29686;SDS011;16599;47.078;15.536;2022-12-24T02:15:06;14.25;;;7.43;;
29686;SDS011;16599;47.078;15.536;2022-12-24T02:17:42;15.75;;;6.43;;
29686;SDS011;16599;47.078;15.536;2022-12-24T02:30:49;11.02;;;4.80;;
29686;SDS011;16599;47.078;15.536;2022-12-24T02:33:25;9.57;;;4.93;;
29686;SDS011;16599;47.078;15.536;2022-12-24T02:36:03;9.70;;;5.57;;
29686;SDS011;16599;47.078;15.536;2022-12-24T02:38:47;9.57;;;4.82;;
29686;SDS011;16599;47.078;15.536;2022-12-24T02:41:23;10.60;;;5.33;;
29686;SDS011;16599;47.078;15.536;2022-12-24T02:44:15;8.15;;;4.53;;
29686;SDS011;16599;47.078;15.536;2022-12-24T02:46:44;11.20;;;4.93;;
29686;SDS011;16599;47.078;15.536;2022-12-24T02:49:12;7.20;;;4.78;;
29686;SDS011;16599;47.078;15.536;2022-12-24T02:51:39;8.13;;;4.90;;
29686;SDS011;16599;47.078;15.536;2022-12-24T02:54:06;7.43;;;4.85;;
29686;SDS011;16599;47.078;15.536;2022-12-24T03:06:07;12.65;;;4.97;;
29686;SDS011;16599;47.078;15.536;2022-12-24T03:08:36;9.82;;;4.22;;
29686;SDS011;16599;47.078;15.536;2022-12-24T03:11:25;8.98;;;5.43;;
29686;SDS011;16599;47.078;15.536;2022-12-24T03:13:52;8.95;;;4.95;;
29686;SDS011;16599;47.078;15.536;2022-12-24T03:16:22;12.25;;;5.00;;
29686;SDS011;16599;47.078;15.536;2022-12-24T03:18:51;7.63;;;5.10;;
29686;SDS011;16599;47.078;15.536;2022-12-24T03:21:25;8.75;;;4.88;;
29686;SDS011;16599;47.078;15.536;2022-12-24T03:23:54;10.10;;;5.35;;
29686;SDS011;16599;47.078;15.536;2022-12-24T03:26:22;13.60;;;4.97;;
29686;SDS011;16599;47.078;15.536;2022-12-24T03:28:51;9.55;;;4.88;;
29686;SDS011;16599;47.078;15.536;2022-12-24T03:31:17;8.35;;;4.18;;
29686;SDS011;16599;47.078;15.536;2022-12-24T03:33:45;7.95;;;3.97;;
29686;SDS011;16599;47.078;15.536;2022-12-24T03:36:13;8.48;;;4.25;;
29686;SDS011;16599;47.078;15.536;2022-12-24T03:38:40;7.65;;;3.95;;
29686;SDS011;16599;47.078;15.536;2022-12-24T03:41:07;5.63;;;3.78;;
29686;SDS011;16599;47.078;15.536;2022-12-24T03:43:34;8.00;;;4.20;;
29686;SDS011;16599;47.078;15.536;2022-12-24T03:46:05;6.85;;;3.80;;
29686;SDS011;16599;47.078;15.536;2022-12-24T03:48:33;6.38;;;3.88;;
29686;SDS011;16599;47.078;15.536;2022-12-24T03:51:01;7.28;;;4.60;;
29686;SDS011;16599;47.078;15.536;2022-12-24T03:53:29;10.95;;;7.55;;
29686;SDS011;16599;47.078;15.536;2022-12-24T03:55:56;7.88;;;5.05;;
29686;SDS011;16599;47.078;15.536;2022-12-24T03:58:23;5.85;;;4.25;;
29686;SDS011;16599;47.078;15.536;2022-12-24T04:00:51;8.18;;;4.88;;
29686;SDS011;16599;47.078;15.536;2022-12-24T04:03:18;10.57;;;5.65;;
29686;SDS011;16599;47.078;15.536;2022-12-24T04:05:46;7.18;;;4.15;;
29686;SDS011;16599;47.078;15.536;2022-12-24T04:08:13;8.02;;;4.68;;
29686;SDS011;16599;47.078;15.536;2022-12-24T04:10:40;6.13;;;4.05;;
29686;SDS011;16599;47.078;15.536;2022-12-24T04:13:07;8.93;;;5.70;;
29686;SDS011;16599;47.078;15.536;2022-12-24T04:15:34;8.32;;;5.03;;
29686;SDS011;16599;47.078;15.536;2022-12-24T04:18:02;6.20;;;3.88;;
29686;SDS011;16599;47.078;15.536;2022-12-24T04:20:29;9.02;;;4.72;;
29686;SDS011;16599;47.078;15.536;2022-12-24T04:22:56;13.10;;;6.15;;
29686;SDS011;16599;47.078;15.536;2022-12-24T04:25:23;10.25;;;5.90;;
29686;SDS011;16599;47.078;15.536;2022-12-24T04:27:50;7.82;;;5.60;;
29686;SDS011;16599;47.078;15.536;2022-12-24T04:30:17;11.90;;;5.93;;
29686;SDS011;16599;47.078;15.536;2022-12-24T04:32:43;9.70;;;5.53;;
29686;SDS011;16599;47.078;15.536;2022-12-24T04:35:10;10.95;;;6.18;;
29686;SDS011;16599;47.078;15.536;2022-12-24T04:37:37;12.70;;;7.03;;
29686;SDS011;16599;47.078;15.536;2022-12-24T04:40:04;9.00;;;5.65;;
29686;SDS011;16599;47.078;15.536;2022-12-24T04:42:32;8.55;;;4.63;;
29686;SDS011;16599;47.078;15.536;2022-12-24T04:45:00;15.02;;;7.90;;
29686;SDS011;16599;47.078;15.536;2022-12-24T04:47:27;16.67;;;9.05;;
29686;SDS011;16599;47.078;15.536;2022-12-24T04:49:54;16.08;;;9.48;;
29686;SDS011;16599;47.078;15.536;2022-12-24T04:52:21;10.63;;;6.18;;
29686;SDS011;16599;47.078;15.536;2022-12-24T04:54:48;13.55;;;7.00;;
29686;SDS011;16599;47.078;15.536;2022-12-24T04:57:15;15.85;;;9.00;;
29686;SDS011;16599;47.078;15.536;2022-12-24T04:59:42;13.68;;;7.63;;
29686;SDS011;16599;47.078;15.536;2022-12-24T05:02:09;14.27;;;7.82;;
29686;SDS011;16599;47.078;15.536;2022-12-24T05:04:36;17.00;;;9.25;;
29686;SDS011;16599;47.078;15.536;2022-12-24T05:07:03;17.70;;;7.95;;
29686;SDS011;16599;47.078;15.536;2022-12-24T05:09:30;15.18;;;8.13;;
29686;SDS011;16599;47.078;15.536;2022-12-24T05:11:57;10.20;;;7.22;;
29686;SDS011;16599;47.078;15.536;2022-12-24T05:14:24;14.25;;;7.47;;
29686;SDS011;16599;47.078;15.536;2022-12-24T05:16:51;17.92;;;8.73;;
29686;SDS011;16599;47.078;15.536;2022-12-24T05:19:18;13.30;;;7.55;;
29686;SDS011;16599;47.078;15.536;2022-12-24T05:21:45;13.50;;;7.68;;
29686;SDS011;16599;47.078;15.536;2022-12-24T05:24:32;16.48;;;7.90;;
29686;SDS011;16599;47.078;15.536;2022-12-24T05:27:17;15.05;;;7.30;;
29686;SDS011;16599;47.078;15.536;2022-12-24T05:29:45;28.58;;;19.30;;
29686;SDS011;16599;47.078;15.536;2022-12-24T05:32:12;13.60;;;8.32;;
29686;SDS011;16599;47.078;15.536;2022-12-24T05:34:39;12.73;;;7.88;;
29686;SDS011;16599;47.078;15.536;2022-12-24T05:37:06;16.48;;;8.90;;
29686;SDS011;16599;47.078;15.536;2022-12-24T05:39:33;19.80;;;13.35;;
29686;SDS011;16599;47.078;15.536;2022-12-24T05:42:00;12.70;;;8.13;;
29686;SDS011;16599;47.078;15.536;2022-12-24T05:44:27;18.00;;;9.82;;
29686;SDS011;16599;47.078;15.536;2022-12-24T05:46:54;19.42;;;9.80;;
29686;SDS011;16599;47.078;15.536;2022-12-24T05:49:21;17.90;;;9.63;;
29686;SDS011;16599;47.078;15.536;2022-12-24T05:51:48;19.80;;;10.38;;
29686;SDS011;16599;47.078;15.536;2022-12-24T05:54:14;17.65;;;9.98;;
29686;SDS011;16599;47.078;15.536;2022-12-24T05:56:41;20.13;;;10.30;;
29686;SDS011;16599;47.078;15.536;2022-12-24T05:59:08;20.30;;;10.95;;
29686;SDS011;16599;47.078;15.536;2022-12-24T06:01:35;20.10;;;10.50;;
29686;SDS011;16599;47.078;15.536;2022-12-24T06:04:02;16.98;;;10.23;;
29686;SDS011;16599;47.078;15.536;2022-12-24T06:06:29;17.73;;;10.30;;
29686;SDS011;16599;47.078;15.536;2022-12-24T06:08:57;26.10;;;12.70;;
29686;SDS011;16599;47.078;15.536;2022-12-24T06:11:25;22.73;;;11.15;;
29686;SDS011;16599;47.078;15.536;2022-12-24T06:13:53;17.73;;;10.23;;
29686;SDS011;16599;47.078;15.536;2022-12-24T06:16:20;20.67;;;10.32;;
29686;SDS011;16599;47.078;15.536;2022-12-24T06:18:48;16.65;;;9.07;;
29686;SDS011;16599;47.078;15.536;2022-12-24T06:21:16;20.35;;;9.90;;
29686;SDS011;16599;47.078;15.536;2022-12-24T06:23:43;21.50;;;10.07;;
29686;SDS011;16599;47.078;15.536;2022-12-24T06:26:12;21.20;;;11.10;;
29686;SDS011;16599;47.078;15.536;2022-12-24T06:28:42;31.63;;;11.90;;
29686;SDS011;16599;47.078;15.536;2022-12-24T06:31:11;22.40;;;10.85;;
29686;SDS011;16599;47.078;15.536;2022-12-24T06:33:39;21.70;;;11.13;;
29686;SDS011;16599;47.078;15.536;2022-12-24T06:36:17;24.58;;;10.23;;
29686;SDS011;16599;47.078;15.536;2022-12-24T06:38:48;28.55;;;12.35;;
29686;SDS011;16599;47.078;15.536;2022-12-24T06:41:16;19.40;;;11.57;;
29686;SDS011;16599;47.078;15.536;2022-12-24T06:43:45;35.97;;;16.65;;
29686;SDS011;16599;47.078;15.536;2022-12-24T06:46:13;23.50;;;12.85;;
29686;SDS011;16599;47.078;15.536;2022-12-24T06:48:42;27.00;;;15.35;;
29686;SDS011;16599;47.078;15.536;2022-12-24T06:51:10;31.08;;;16.25;;
29686;SDS011;16599;47.078;15.536;2022-12-24T06:53:39;25.42;;;13.32;;
29686;SDS011;16599;47.078;15.536;2022-12-24T06:56:07;29.73;;;16.10;;
29686;SDS011;16599;47.078;15.536;2022-12-24T06:58:36;31.73;;;13.65;;
29686;SDS011;16599;47.078;15.536;2022-12-24T07:01:03;25.60;;;13.00;;
29686;SDS011;16599;47.078;15.536;2022-12-24T07:03:31;24.92;;;13.32;;
29686;SDS011;16599;47.078;15.536;2022-12-24T07:05:59;24.50;;;13.13;;
29686;SDS011;16599;47.078;15.536;2022-12-24T07:08:26;26.95;;;12.98;;
29686;SDS011;16599;47.078;15.536;2022-12-24T07:10:53;30.38;;;17.92;;
29686;SDS011;16599;47.078;15.536;2022-12-24T07:13:20;21.77;;;11.82;;
29686;SDS011;16599;47.078;15.536;2022-12-24T07:15:55;40.60;;;18.70;;
29686;SDS011;16599;47.078;15.536;2022-12-24T07:18:25;37.67;;;17.58;;
29686;SDS011;16599;47.078;15.536;2022-12-24T07:20:53;41.35;;;19.00;;
29686;SDS011;16599;47.078;15.536;2022-12-24T07:23:20;37.78;;;16.75;;
29686;SDS011;16599;47.078;15.536;2022-12-24T07:25:47;39.22;;;17.92;;
29686;SDS011;16599;47.078;15.536;2022-12-24T07:28:14;25.95;;;12.15;;
29686;SDS011;16599;47.078;15.536;2022-12-24T07:30:41;29.95;;;13.40;;
29686;SDS011;16599;47.078;15.536;2022-12-24T07:33:08;20.10;;;11.30;;
29686;SDS011;16599;47.078;15.536;2022-12-24T07:35:34;18.73;;;10.15;;
29686;SDS011;16599;47.078;15.536;2022-12-24T07:38:01;16.10;;;9.55;;
29686;SDS011;16599;47.078;15.536;2022-12-24T07:40:28;19.45;;;9.95;;
29686;SDS011;16599;47.078;15.536;2022-12-24T07:42:55;20.70;;;11.02;;
29686;SDS011;16599;47.078;15.536;2022-12-24T07:45:22;16.45;;;10.15;;
29686;SDS011;16599;47.078;15.536;2022-12-24T07:47:49;23.63;;;10.77;;
29686;SDS011;16599;47.078;15.536;2022-12-24T07:50:16;21.33;;;10.85;;
29686;SDS011;16599;47.078;15.536;2022-12-24T07:52:44;18.75;;;10.55;;
29686;SDS011;16599;47.078;15.536;2022-12-24T07:55:10;30.45;;;15.95;;
29686;SDS011;16599;47.078;15.536;2022-12-24T07:57:37;17.58;;;10.15;;
29686;SDS011;16599;47.078;15.536;2022-12-24T08:00:04;17.65;;;8.45;;
29686;SDS011;16599;47.078;15.536;2022-12-24T08:02:32;21.48;;;11.27;;
29686;SDS011;16599;47.078;15.536;2022-12-24T08:04:59;16.73;;;9.75;;
29686;SDS011;16599;47.078;15.536;2022-12-24T08:07:26;17.42;;;9.40;;
29686;SDS011;16599;47.078;15.536;2022-12-24T08:09:53;12.27;;;7.43;;
29686;SDS011;16599;47.078;15.536;2022-12-24T08:12:20;15.25;;;7.93;;
29686;SDS011;16599;47.078;15.536;2022-12-24T08:14:46;21.98;;;8.07;;
29686;SDS011;16599;47.078;15.536;2022-12-24T08:17:13;13.23;;;7.63;;
29686;SDS011;16599;47.078;15.536;2022-12-24T08:19:40;11.88;;;7.20;;
29686;SDS011;16599;47.078;15.536;2022-12-24T08:22:07;17.27;;;8.07;;
29686;SDS011;16599;47.078;15.536;2022-12-24T08:24:34;12.95;;;7.50;;
29686;SDS011;16599;47.078;15.536;2022-12-24T08:27:02;14.55;;;7.00;;
29686;SDS011;16599;47.078;15.536;2022-12-24T08:29:29;18.05;;;9.35;;
29686;SDS011;16599;47.078;15.536;2022-12-24T08:31:56;18.38;;;11.05;;
29686;SDS011;16599;47.078;15.536;2022-12-24T08:34:23;14.55;;;7.35;;
29686;SDS011;16599;47.078;15.536;2022-12-24T08:36:50;16.17;;;7.78;;
29686;SDS011;16599;47.078;15.536;2022-12-24T08:39:17;13.52;;;9.25;;
29686;SDS011;16599;47.078;15.536;2022-12-24T08:41:45;11.75;;;7.68;;
29686;SDS011;16599;47.078;15.536;2022-12-24T08:44:12;17.60;;;7.90;;
29686;SDS011;16599;47.078;15.536;2022-12-24T08:46:40;15.57;;;8.77;;
29686;SDS011;16599;47.078;15.536;2022-12-24T08:49:07;14.88;;;8.90;;
29686;SDS011;16599;47.078;15.536;2022-12-24T08:51:34;16.00;;;7.95;;
29686;SDS011;16599;47.078;15.536;2022-12-24T08:54:02;12.50;;;8.18;;
29686;SDS011;16599;47.078;15.536;2022-12-24T08:56:29;16.83;;;9.00;;
29686;SDS011;16599;47.078;15.536;2022-12-24T08:58:56;16.10;;;9.30;;
29686;SDS011;16599;47.078;15.536;2022-12-24T09:01:23;22.05;;;13.25;;
29686;SDS011;16599;47.078;15.536;2022-12-24T09:03:50;22.45;;;14.55;;
29686;SDS011;16599;47.078;15.536;2022-12-24T09:06:19;19.20;;;14.57;;
29686;SDS011;16599;47.078;15.536;2022-12-24T09:08:47;22.33;;;12.35;;
29686;SDS011;16599;47.078;15.536;2022-12-24T09:11:15;19.42;;;13.45;;
29686;SDS011;16599;47.078;15.536;2022-12-24T09:13:43;19.88;;;14.93;;
29686;SDS011;16599;47.078;15.536;2022-12-24T09:16:16;17.58;;;12.32;;
29686;SDS011;16599;47.078;15.536;2022-12-24T09:18:43;15.98;;;10.95;;
29686;SDS011;16599;47.078;15.536;2022-12-24T09:21:11;14.32;;;10.45;;
29686;SDS011;16599;47.078;15.536;2022-12-24T09:23:43;22.92;;;11.77;;
29686;SDS011;16599;47.078;15.536;2022-12-24T09:26:29;15.18;;;9.98;;
29686;SDS011;16599;47.078;15.536;2022-12-24T09:28:58;17.98;;;11.25;;
29686;SDS011;16599;47.078;15.536;2022-12-24T09:31:26;15.13;;;10.32;;
29686;SDS011;16599;47.078;15.536;2022-12-24T09:33:53;15.55;;;10.30;;
29686;SDS011;16599;47.078;15.536;2022-12-24T09:36:20;19.92;;;14.55;;
29686;SDS011;16599;47.078;15.536;2022-12-24T09:38:47;16.48;;;11.77;;
29686;SDS011;16599;47.078;15.536;2022-12-24T09:45:02;15.75;;;9.55;;
29686;SDS011;16599;47.078;15.536;2022-12-24T09:50:10;15.75;;;10.00;;
29686;SDS011;16599;47.078;15.536;2022-12-24T09:52:58;15.32;;;10.35;;
29686;SDS011;16599;47.078;15.536;2022-12-24T09:55:30;13.88;;;9.60;;
29686;SDS011;16599;47.078;15.536;2022-12-24T09:58:00;16.10;;;9.82;;
29686;SDS011;16599;47.078;15.536;2022-12-24T10:00:31;11.50;;;9.05;;
29686;SDS011;16599;47.078;15.536;2022-12-24T10:03:11;15.77;;;9.38;;
29686;SDS011;16599;47.078;15.536;2022-12-24T10:20:16;21.33;;;10.57;;
29686;SDS011;16599;47.078;15.536;2022-12-24T10:23:05;21.05;;;12.63;;
29686;SDS011;16599;47.078;15.536;2022-12-24T10:26:13;23.75;;;14.48;;
29686;SDS011;16599;47.078;15.536;2022-12-24T10:28:55;35.10;;;21.02;;
29686;SDS011;16599;47.078;15.536;2022-12-24T10:31:28;28.08;;;16.92;;
29686;SDS011;16599;47.078;15.536;2022-12-24T10:33:58;25.63;;;16.08;;
29686;SDS011;16599;47.078;15.536;2022-12-24T10:36:29;32.00;;;17.23;;
29686;SDS011;16599;47.078;15.536;2022-12-24T10:38:56;30.13;;;16.15;;
29686;SDS011;16599;47.078;15.536;2022-12-24T10:41:24;29.02;;;17.67;;
29686;SDS011;16599;47.078;15.536;2022-12-24T10:43:52;24.35;;;14.20;;
29686;SDS011;16599;47.078;15.536;2022-12-24T10:46:21;27.13;;;14.57;;
29686;SDS011;16599;47.078;15.536;2022-12-24T10:49:00;25.80;;;15.55;;
29686;SDS011;16599;47.078;15.536;2022-12-24T10:54:20;25.55;;;11.95;;
29686;SDS011;16599;47.078;15.536;2022-12-24T10:56:56;22.45;;;11.85;;
29686;SDS011;16599;47.078;15.536;2022-12-24T10:59:26;18.50;;;10.48;;
29686;SDS011;16599;47.078;15.536;2022-12-24T11:02:26;19.42;;;10.88;;
29686;SDS011;16599;47.078;15.536;2022-12-24T11:08:43;17.92;;;8.52;;
29686;SDS011;16599;47.078;15.536;2022-12-24T11:11:20;21.73;;;10.05;;
29686;SDS011;16599;47.078;15.536;2022-12-24T11:19:01;14.45;;;6.78;;
29686;SDS011;16599;47.078;15.536;2022-12-24T11:21:33;19.88;;;6.53;;
29686;SDS011;16599;47.078;15.536;2022-12-24T11:26:34;19.55;;;7.68;;
29686;SDS011;16599;47.078;15.536;2022-12-24T11:31:40;10.95;;;6.82;;
29686;SDS011;16599;47.078;15.536;2022-12-24T11:34:24;29.00;;;26.05;;
29686;SDS011;16599;47.078;15.536;2022-12-24T11:37:05;14.43;;;8.07;;
29686;SDS011;16599;47.078;15.536;2022-12-24T11:39:40;13.02;;;6.18;;
29686;SDS011;16599;47.078;15.536;2022-12-24T11:42:36;9.30;;;5.82;;
29686;SDS011;16599;47.078;15.536;2022-12-24T11:45:05;10.05;;;5.30;;
29686;SDS011;16599;47.078;15.536;2022-12-24T11:47:42;9.32;;;5.72;;
29686;SDS011;16599;47.078;15.536;2022-12-24T11:52:51;9.23;;;5.00;;
29686;SDS011;16599;47.078;15.536;2022-12-24T12:01:51;8.43;;;4.95;;
29686;SDS011;16599;47.078;15.536;2022-12-24T12:04:43;8.93;;;5.00;;
29686;SDS011;16599;47.078;15.536;2022-12-24T12:13:30;11.57;;;5.93;;
29686;SDS011;16599;47.078;15.536;2022-12-24T12:16:38;9.40;;;5.45;;
29686;SDS011;16599;47.078;15.536;2022-12-24T12:19:30;14.18;;;6.47;;
29686;SDS011;16599;47.078;15.536;2022-12-24T12:22:06;13.20;;;8.25;;
29686;SDS011;16599;47.078;15.536;2022-12-24T12:38:11;14.82;;;6.75;;
29686;SDS011;16599;47.078;15.536;2022-12-24T12:49:30;10.52;;;5.90;;
29686;SDS011;16599;47.078;15.536;2022-12-24T12:52:34;11.02;;;6.10;;
29686;SDS011;16599;47.078;15.536;2022-12-24T12:58:42;11.20;;;6.83;;
29686;SDS011;16599;47.078;15.536;2022-12-24T13:01:40;13.00;;;7.18;;
29686;SDS011;16599;47.078;15.536;2022-12-24T13:12:32;9.57;;;5.32;;
29686;SDS011;16599;47.078;15.536;2022-12-24T13:18:24;8.70;;;5.22;;
29686;SDS011;16599;47.078;15.536;2022-12-24T13:21:20;10.82;;;4.80;;
29686;SDS011;16599;47.078;15.536;2022-12-24T13:23:50;10.50;;;4.93;;
29686;SDS011;16599;47.078;15.536;2022-12-24T13:35:58;16.77;;;7.20;;
29686;SDS011;16599;47.078;15.536;2022-12-24T13:38:38;8.70;;;4.65;;
29686;SDS011;16599;47.078;15.536;2022-12-24T13:47:00;12.18;;;4.43;;
29686;SDS011;16599;47.078;15.536;2022-12-24T13:49:41;6.85;;;3.67;;
29686;SDS011;16599;47.078;15.536;2022-12-24T13:54:36;7.10;;;4.18;;
29686;SDS011;16599;47.078;15.536;2022-12-24T14:02:39;6.63;;;4.20;;
29686;SDS011;16599;47.078;15.536;2022-12-24T14:05:24;9.07;;;4.35;;
29686;SDS011;16599;47.078;15.536;2022-12-24T14:08:09;8.57;;;4.40;;
29686;SDS011;16599;47.078;15.536;2022-12-24T14:10:40;9.90;;;4.68;;
29686;SDS011;16599;47.078;15.536;2022-12-24T14:16:04;9.07;;;4.55;;
29686;SDS011;16599;47.078;15.536;2022-12-24T14:21:36;8.65;;;4.95;;
29686;SDS011;16599;47.078;15.536;2022-12-24T14:24:13;8.25;;;4.55;;
29686;SDS011;16599;47.078;15.536;2022-12-24T14:26:46;9.63;;;4.68;;
29686;SDS011;16599;47.078;15.536;2022-12-24T14:31:58;9.60;;;4.78;;
29686;SDS011;16599;47.078;15.536;2022-12-24T14:34:30;13.43;;;5.22;;
29686;SDS011;16599;47.078;15.536;2022-12-24T14:36:57;9.60;;;4.68;;
29686;SDS011;16599;47.078;15.536;2022-12-24T14:39:30;8.27;;;5.30;;
29686;SDS011;16599;47.078;15.536;2022-12-24T14:48:19;10.80;;;5.63;;
29686;SDS011;16599;47.078;15.536;2022-12-24T14:56:26;26.60;;;9.95;;
29686;SDS011;16599;47.078;15.536;2022-12-24T14:58:53;40.72;;;14.60;;
29686;SDS011;16599;47.078;15.536;2022-12-24T15:04:00;34.95;;;12.88;;
29686;SDS011;16599;47.078;15.536;2022-12-24T15:06:48;27.27;;;10.60;;
29686;SDS011;16599;47.078;15.536;2022-12-24T15:09:19;22.92;;;9.88;;
29686;SDS011;16599;47.078;15.536;2022-12-24T15:11:52;25.38;;;11.02;;
29686;SDS011;16599;47.078;15.536;2022-12-24T15:14:22;24.63;;;10.07;;
29686;SDS011;16599;47.078;15.536;2022-12-24T15:16:55;19.23;;;9.73;;
29686;SDS011;16599;47.078;15.536;2022-12-24T15:19:28;22.52;;;8.90;;
29686;SDS011;16599;47.078;15.536;2022-12-24T15:22:02;15.25;;;7.18;;
29686;SDS011;16599;47.078;15.536;2022-12-24T15:24:34;17.02;;;8.27;;
29686;SDS011;16599;47.078;15.536;2022-12-24T15:27:19;12.80;;;6.85;;
29686;SDS011;16599;47.078;15.536;2022-12-24T15:32:30;19.63;;;7.93;;
29686;SDS011;16599;47.078;15.536;2022-12-24T15:35:00;11.68;;;7.28;;
29686;SDS011;16599;47.078;15.536;2022-12-24T15:37:28;11.55;;;6.97;;
29686;SDS011;16599;47.078;15.536;2022-12-24T15:40:03;12.57;;;7.22;;
29686;SDS011;16599;47.078;15.536;2022-12-24T15:42:33;15.25;;;7.43;;
29686;SDS011;16599;47.078;15.536;2022-12-24T15:45:02;13.43;;;7.43;;
29686;SDS011;16599;47.078;15.536;2022-12-24T15:47:34;16.88;;;6.93;;
29686;SDS011;16599;47.078;15.536;2022-12-24T15:53:05;12.65;;;6.75;;
29686;SDS011;16599;47.078;15.536;2022-12-24T15:55:58;13.52;;;7.63;;
29686;SDS011;16599;47.078;15.536;2022-12-24T15:58:29;11.85;;;7.18;;
29686;SDS011;16599;47.078;15.536;2022-12-24T16:03:34;13.85;;;7.03;;
29686;SDS011;16599;47.078;15.536;2022-12-24T16:06:04;12.52;;;7.35;;
29686;SDS011;16599;47.078;15.536;2022-12-24T16:08:37;14.02;;;7.70;;
29686;SDS011;16599;47.078;15.536;2022-12-24T16:16:20;12.82;;;7.85;;
29686;SDS011;16599;47.078;15.536;2022-12-24T16:18:56;13.52;;;8.07;;
29686;SDS011;16599;47.078;15.536;2022-12-24T16:21:27;18.60;;;7.68;;
29686;SDS011;16599;47.078;15.536;2022-12-24T16:24:21;33.00;;;18.48;;
29686;SDS011;16599;47.078;15.536;2022-12-24T16:26:50;26.77;;;15.45;;
29686;SDS011;16599;47.078;15.536;2022-12-24T16:29:18;82.82;;;36.08;;
29686;SDS011;16599;47.078;15.536;2022-12-24T16:31:47;57.33;;;24.73;;
29686;SDS011;16599;47.078;15.536;2022-12-24T16:34:17;61.38;;;25.95;;
29686;SDS011;16599;47.078;15.536;2022-12-24T16:36:45;67.78;;;29.23;;
29686;SDS011;16599;47.078;15.536;2022-12-24T16:41:50;52.40;;;22.98;;
29686;SDS011;16599;47.078;15.536;2022-12-24T16:44:37;160.98;;;58.95;;
29686;SDS011;16599;47.078;15.536;2022-12-24T16:47:11;148.45;;;50.83;;
29686;SDS011;16599;47.078;15.536;2022-12-24T16:49:49;96.80;;;36.80;;
29686;SDS011;16599;47.078;15.536;2022-12-24T16:52:17;102.40;;;38.60;;
29686;SDS011;16599;47.078;15.536;2022-12-24T16:54:48;131.68;;;47.45;;
29686;SDS011;16599;47.078;15.536;2022-12-24T16:57:15;114.65;;;41.20;;
29686;SDS011;16599;47.078;15.536;2022-12-24T16:59:43;112.63;;;36.05;;
29686;SDS011;16599;47.078;15.536;2022-12-24T17:02:12;112.45;;;39.95;;
29686;SDS011;16599;47.078;15.536;2022-12-24T17:04:41;234.05;;;77.50;;
29686;SDS011;16599;47.078;15.536;2022-12-24T17:07:12;296.42;;;91.00;;
29686;SDS011;16599;47.078;15.536;2022-12-24T17:09:41;247.25;;;75.53;;
29686;SDS011;16599;47.078;15.536;2022-12-24T17:12:08;101.30;;;35.00;;
29686;SDS011;16599;47.078;15.536;2022-12-24T17:14:36;54.45;;;22.08;;
29686;SDS011;16599;47.078;15.536;2022-12-24T17:17:04;54.10;;;20.30;;
29686;SDS011;16599;47.078;15.536;2022-12-24T17:19:31;35.83;;;15.23;;
29686;SDS011;16599;47.078;15.536;2022-12-24T17:21:58;46.45;;;19.05;;
29686;SDS011;16599;47.078;15.536;2022-12-24T17:24:24;39.13;;;17.52;;
29686;SDS011;16599;47.078;15.536;2022-12-24T17:26:51;45.75;;;20.30;;
29686;SDS011;16599;47.078;15.536;2022-12-24T17:29:18;33.45;;;15.60;;
29686;SDS011;16599;47.078;15.536;2022-12-24T17:31:45;27.15;;;13.70;;